createdAt,value
2023-05-24T00:00:57.158Z,10.062
2023-05-24T00:03:57.835Z,10.0
2023-05-24T00:06:57.382Z,10.0
2023-05-24T00:09:57.397Z,10.0
2023-05-24T00:12:57.867Z,10.0
2023-05-24T00:15:58.129Z,10.0
2023-05-24T00:18:57.667Z,10.0
2023-05-24T00:21:57.500Z,9.875
2023-05-24T00:24:57.559Z,9.937
2023-05-24T00:27:57.497Z,9.875
2023-05-24T00:30:57.886Z,9.75
2023-05-24T00:33:57.474Z,9.75
2023-05-24T00:36:56.932Z,9.75
2023-05-24T00:39:58.223Z,9.75
2023-05-24T00:42:57.138Z,9.625
2023-05-24T00:45:57.821Z,9.562
2023-05-24T00:48:57.046Z,9.5
2023-05-24T00:51:56.930Z,9.375
2023-05-24T00:54:57.460Z,9.312
2023-05-24T00:57:57.097Z,9.187
2023-05-24T01:00:57.246Z,9.25
2023-05-24T01:03:57.645Z,9.312
2023-05-24T01:06:57.235Z,9.312
2023-05-24T01:09:57.163Z,9.312
2023-05-24T01:12:57.333Z,9.312
2023-05-24T01:15:57.147Z,9.375
2023-05-24T01:18:57.176Z,9.375
2023-05-24T01:21:56.858Z,9.437
2023-05-24T01:24:57.022Z,9.375
2023-05-24T01:27:56.980Z,9.375
2023-05-24T01:30:57.328Z,9.312
2023-05-24T01:33:56.916Z,9.25
2023-05-24T01:36:57.129Z,9.25
2023-05-24T01:39:57.160Z,9.25
2023-05-24T01:42:56.785Z,9.187
2023-05-24T01:45:57.530Z,9.125
2023-05-24T01:48:56.593Z,9.062
2023-05-24T01:51:57.666Z,9.0
2023-05-24T01:54:57.463Z,8.937
2023-05-24T01:57:57.023Z,8.812
2023-05-24T02:00:57.516Z,8.812
2023-05-24T02:03:57.387Z,8.687
2023-05-24T02:06:57.216Z,8.625
2023-05-24T02:09:56.795Z,8.625
2023-05-24T02:12:57.016Z,8.5
2023-05-24T02:15:57.389Z,8.5
2023-05-24T02:18:58.069Z,8.375
2023-05-24T02:21:57.605Z,8.375
2023-05-24T02:24:57.614Z,8.375
2023-05-24T02:27:57.304Z,8.312
2023-05-24T02:30:57.091Z,8.312
2023-05-24T02:33:56.888Z,8.312
2023-05-24T02:36:57.161Z,8.312
2023-05-24T02:39:56.917Z,8.25
2023-05-24T02:42:57.679Z,8.062
2023-05-24T02:45:57.730Z,8.062
2023-05-24T02:48:56.868Z,8.187
2023-05-24T02:51:57.739Z,8.125
2023-05-24T02:54:56.786Z,7.937
2023-05-24T02:57:56.911Z,7.75
2023-05-24T03:00:57.430Z,7.75
2023-05-24T03:03:56.755Z,7.875
2023-05-24T03:06:57.306Z,7.75
2023-05-24T03:09:57.541Z,7.687
2023-05-24T03:12:56.848Z,7.625
2023-05-24T03:15:57.510Z,7.562
2023-05-24T03:18:57.489Z,7.562
2023-05-24T03:21:57.284Z,7.562
2023-05-24T03:24:57.075Z,7.687
2023-05-24T03:27:57.320Z,7.625
2023-05-24T03:30:58.034Z,7.5
2023-05-24T03:33:57.302Z,7.375
2023-05-24T03:36:57.146Z,7.75
2023-05-24T03:39:56.819Z,7.75
2023-05-24T03:42:57.215Z,7.75
2023-05-24T03:45:57.311Z,7.625
2023-05-24T03:48:57.339Z,7.75
2023-05-24T03:51:57.533Z,7.875
2023-05-24T03:54:57.192Z,7.812
2023-05-24T03:57:57.667Z,7.812
2023-05-24T04:00:57.084Z,7.875
2023-05-24T04:03:56.843Z,7.937
2023-05-24T04:06:57.106Z,8.0
2023-05-24T04:09:57.678Z,8.0
2023-05-24T04:12:56.818Z,8.0
2023-05-24T04:15:57.341Z,8.062
2023-05-24T04:18:57.869Z,8.125
2023-05-24T04:21:56.943Z,8.125
2023-05-24T04:24:57.204Z,8.062
2023-05-24T04:27:57.226Z,8.062
2023-05-24T04:30:57.531Z,8.062
2023-05-24T04:33:57.449Z,8.062
2023-05-24T04:36:57.247Z,8.0
2023-05-24T04:39:57.977Z,8.062
2023-05-24T04:42:57.390Z,8.125
2023-05-24T04:45:57.283Z,8.125
2023-05-24T04:48:57.256Z,8.187
2023-05-24T04:51:57.185Z,8.187
2023-05-24T04:54:57.498Z,8.187
2023-05-24T04:57:57.187Z,8.062
2023-05-24T05:00:57.782Z,8.125
2023-05-24T05:03:57.289Z,8.125
2023-05-24T05:06:56.932Z,8.187
2023-05-24T05:09:58.074Z,8.187
2023-05-24T05:12:57.745Z,8.062
2023-05-24T05:15:58.025Z,8.062
2023-05-24T05:18:57.821Z,8.062
2023-05-24T05:21:57.634Z,8.187
2023-05-24T05:24:56.971Z,8.187
2023-05-24T05:27:57.227Z,8.187
2023-05-24T05:30:57.677Z,8.125
2023-05-24T05:33:57.347Z,8.312
2023-05-24T05:36:57.356Z,8.312
2023-05-24T05:39:57.680Z,8.437
2023-05-24T05:42:57.516Z,8.5
2023-05-24T05:45:57.648Z,8.312
2023-05-24T05:48:57.349Z,8.562
2023-05-24T05:51:57.574Z,8.625
2023-05-24T05:54:57.190Z,8.75
2023-05-24T05:57:58.075Z,8.75
2023-05-24T06:00:58.044Z,8.687
2023-05-24T06:03:57.234Z,8.75
2023-05-24T06:06:57.253Z,8.875
2023-05-24T06:09:58.224Z,8.875
2023-05-24T06:12:57.562Z,9.125
2023-05-24T06:15:58.050Z,8.937
2023-05-24T06:19:05.983Z,8.687
2023-05-24T06:21:57.259Z,8.812
2023-05-24T06:24:57.688Z,8.812
2023-05-24T06:27:58.149Z,8.687
2023-05-24T06:30:57.122Z,8.812
2023-05-24T06:36:56.923Z,9.375
2023-05-24T06:39:57.558Z,9.0
2023-05-24T06:42:57.778Z,9.0
2023-05-24T06:45:57.445Z,9.312
2023-05-24T06:48:57.555Z,9.312
2023-05-24T06:51:57.672Z,9.125
2023-05-24T06:54:57.683Z,9.437
2023-05-24T06:57:57.363Z,9.0
2023-05-24T07:00:57.446Z,9.437
2023-05-24T07:03:57.489Z,9.25
2023-05-24T07:06:57.727Z,9.062
2023-05-24T07:09:57.622Z,9.062
2023-05-24T07:12:57.346Z,9.375
2023-05-24T07:15:57.176Z,9.312
2023-05-24T07:18:57.376Z,9.187
2023-05-24T07:21:57.354Z,9.125
2023-05-24T07:24:57.765Z,9.375
2023-05-24T07:27:57.915Z,9.25
2023-05-24T07:30:56.993Z,9.5
2023-05-24T07:33:57.814Z,9.375
2023-05-24T07:36:56.891Z,9.562
2023-05-24T07:39:57.178Z,9.687
2023-05-24T07:42:57.316Z,9.625
2023-05-24T07:45:58.279Z,9.625
2023-05-24T07:48:56.732Z,9.625
2023-05-24T07:51:57.707Z,9.625
2023-05-24T07:54:57.823Z,9.75
2023-05-24T07:57:56.870Z,9.812
2023-05-24T08:00:57.586Z,9.875
2023-05-24T08:03:57.921Z,9.875
2023-05-24T08:06:57.151Z,9.812
2023-05-24T08:09:58.222Z,9.75
2023-05-24T08:12:57.027Z,9.75
2023-05-24T08:15:57.379Z,9.75
2023-05-24T08:18:57.443Z,9.875
2023-05-24T08:21:57.059Z,10.25
2023-05-24T08:24:57.224Z,9.75
2023-05-24T08:27:57.179Z,10.125
2023-05-24T08:30:57.414Z,10.187
2023-05-24T08:33:57.108Z,9.875
2023-05-24T08:36:56.976Z,9.937
2023-05-24T08:39:57.965Z,10.187
2023-05-24T08:42:57.787Z,9.812
2023-05-24T08:45:57.369Z,10.125
2023-05-24T08:48:56.959Z,10.062
2023-05-24T08:51:57.866Z,9.875
2023-05-24T08:54:57.789Z,9.875
2023-05-24T08:57:57.715Z,10.437
2023-05-24T09:00:58.425Z,10.125
2023-05-24T09:03:57.245Z,10.187
2023-05-24T09:06:57.920Z,10.187
2023-05-24T09:09:58.398Z,10.062
2023-05-24T09:12:57.383Z,10.5
2023-05-24T09:15:57.599Z,10.25
2023-05-24T09:18:57.513Z,9.937
2023-05-24T09:21:57.621Z,10.125
2023-05-24T09:24:56.953Z,10.312
2023-05-24T09:27:57.144Z,10.0
2023-05-24T09:30:57.724Z,10.25
2023-05-24T09:33:57.322Z,9.937
2023-05-24T09:36:56.864Z,10.0
2023-05-24T09:39:57.712Z,10.125
2023-05-24T09:42:57.177Z,10.0
2023-05-24T09:45:57.127Z,10.0
2023-05-24T09:48:57.895Z,9.937
2023-05-24T09:51:57.989Z,9.937
2023-05-24T09:54:57.161Z,9.937
2023-05-24T09:57:57.090Z,9.5
2023-05-24T10:00:57.737Z,9.75
2023-05-24T10:03:57.062Z,9.75
2023-05-24T10:06:56.694Z,9.75
2023-05-24T10:09:57.799Z,9.625
2023-05-24T10:12:57.789Z,9.687
2023-05-24T10:15:57.786Z,9.75
2023-05-24T10:18:57.513Z,9.687
2023-05-24T10:21:57.332Z,9.875
2023-05-24T10:24:57.571Z,10.125
2023-05-24T10:27:57.179Z,9.875
2023-05-24T10:30:57.421Z,9.937
2023-05-24T10:34:06.663Z,10.187
2023-05-24T10:36:57.410Z,10.125
2023-05-24T10:39:56.734Z,10.25
2023-05-24T10:42:56.754Z,10.187
2023-05-24T10:45:56.984Z,10.187
2023-05-24T10:48:57.037Z,10.187
2023-05-24T10:51:57.597Z,10.187
2023-05-24T10:55:03.448Z,10.062
2023-05-24T10:57:57.301Z,9.875
2023-05-24T11:00:57.555Z,10.062
2023-05-24T11:04:16.661Z,10.062
2023-05-24T11:06:57.222Z,10.062
2023-05-24T11:09:56.969Z,9.875
2023-05-24T11:12:56.872Z,9.875
2023-05-24T11:15:57.824Z,9.875
2023-05-24T11:18:57.354Z,10.0
2023-05-24T11:21:57.090Z,10.0
2023-05-24T11:24:57.832Z,9.687
2023-05-24T11:27:57.581Z,9.875
2023-05-24T11:30:57.716Z,9.812
2023-05-24T11:33:57.485Z,9.562
2023-05-24T11:36:57.779Z,9.812
2023-05-24T11:39:58.297Z,9.75
2023-05-24T11:42:56.886Z,9.75
2023-05-24T11:45:57.317Z,9.75
2023-05-24T11:48:56.963Z,9.875
2023-05-24T11:51:58.101Z,9.687
2023-05-24T11:54:57.170Z,10.125
2023-05-24T11:57:58.616Z,9.875
2023-05-24T12:00:58.169Z,10.0
2023-05-24T12:03:57.259Z,10.25
2023-05-24T12:06:57.347Z,10.25
2023-05-24T12:09:57.028Z,10.25
2023-05-24T12:12:56.714Z,10.5
2023-05-24T12:15:57.655Z,10.5
2023-05-24T12:19:05.083Z,10.312
2023-05-24T12:21:57.748Z,10.5
2023-05-24T12:24:57.156Z,10.437
2023-05-24T12:27:57.147Z,11.062
2023-05-24T12:30:58.016Z,10.75
2023-05-24T12:33:57.083Z,11.062
2023-05-24T12:36:57.025Z,12.5
2023-05-24T12:39:57.947Z,12.312
2023-05-24T12:42:57.549Z,11.625
2023-05-24T12:45:57.096Z,12.75
2023-05-24T12:48:57.424Z,14.125
2023-05-24T12:51:57.423Z,13.812
2023-05-24T12:54:57.826Z,14.5
2023-05-24T12:57:56.980Z,15.0
2023-05-24T13:00:57.561Z,15.187
2023-05-24T13:03:57.757Z,14.25
2023-05-24T13:06:57.256Z,14.437
2023-05-24T13:09:57.426Z,16.437
2023-05-24T13:12:57.092Z,14.812
2023-05-24T13:15:57.561Z,15.687
2023-05-24T13:18:57.204Z,14.812
2023-05-24T13:21:57.722Z,13.437
2023-05-24T13:24:56.997Z,13.437
2023-05-24T13:27:57.369Z,14.187
2023-05-24T13:30:57.974Z,14.187
2023-05-24T13:33:57.533Z,14.187
2023-05-24T13:36:57.811Z,13.625
2023-05-24T13:39:57.801Z,13.312
2023-05-24T13:42:57.547Z,14.437
2023-05-24T13:45:57.154Z,14.437
2023-05-24T13:48:56.942Z,14.375
2023-05-24T13:51:58.508Z,14.375
2023-05-24T13:54:57.605Z,14.375
2023-05-24T13:57:56.684Z,14.375
2023-05-24T14:00:57.235Z,13.187
2023-05-24T14:03:57.314Z,13.187
2023-05-24T14:06:57.112Z,13.25
2023-05-24T14:09:57.497Z,13.25
2023-05-24T14:13:15.058Z,13.687
2023-05-24T14:15:58.317Z,14.0
2023-05-24T14:18:57.223Z,14.0
2023-05-24T14:21:57.396Z,14.0
2023-05-24T14:24:57.841Z,12.687
2023-05-24T14:27:57.100Z,12.5
2023-05-24T14:30:57.058Z,12.5
2023-05-24T14:33:57.139Z,13.125
2023-05-24T14:36:57.743Z,13.312
2023-05-24T14:39:57.187Z,13.875
2023-05-24T14:42:57.442Z,13.75
2023-05-24T14:45:57.395Z,13.625
2023-05-24T14:48:57.342Z,13.312
2023-05-24T14:51:57.805Z,13.062
2023-05-24T14:54:57.776Z,12.937
2023-05-24T14:57:57.194Z,13.125
2023-05-24T15:00:57.686Z,13.062
2023-05-24T15:03:57.206Z,13.125
2023-05-24T15:06:57.872Z,13.062
2023-05-24T15:09:57.752Z,13.062
2023-05-24T15:12:57.029Z,12.75
2023-05-24T15:15:57.451Z,13.312
2023-05-24T15:18:57.728Z,13.312
2023-05-24T15:21:56.758Z,13.625
2023-05-24T15:24:56.673Z,13.25
2023-05-24T15:27:57.499Z,13.562
2023-05-24T15:30:57.160Z,13.625
2023-05-24T15:33:56.913Z,13.312
2023-05-24T15:36:57.267Z,13.125
2023-05-24T15:39:57.998Z,13.125
2023-05-24T15:42:58.017Z,13.687
2023-05-24T15:45:57.529Z,13.687
2023-05-24T15:48:57.311Z,13.625
2023-05-24T15:52:04.196Z,13.625
2023-05-24T15:54:58.106Z,13.875
2023-05-24T15:57:57.711Z,13.812
2023-05-24T16:00:58.209Z,13.812
2023-05-24T16:03:57.926Z,13.625
2023-05-24T16:06:57.327Z,13.625
2023-05-24T16:09:57.590Z,13.312
2023-05-24T16:12:57.512Z,13.187
2023-05-24T16:15:58.364Z,13.187
2023-05-24T16:18:57.611Z,13.25
2023-05-24T16:21:58.212Z,13.187
2023-05-24T16:24:58.113Z,13.062
2023-05-24T16:27:57.455Z,13.0
2023-05-24T16:30:57.663Z,13.25
2023-05-24T16:33:57.954Z,13.25
2023-05-24T16:36:57.615Z,13.25
2023-05-24T16:39:58.001Z,12.937
2023-05-24T16:42:58.127Z,13.0
2023-05-24T16:45:57.562Z,12.937
2023-05-24T16:48:58.022Z,12.937
2023-05-24T16:51:58.046Z,12.75
2023-05-24T16:54:58.171Z,12.937
2023-05-24T16:57:56.990Z,12.937
2023-05-24T17:00:58.353Z,12.875
2023-05-24T17:03:57.899Z,12.875
2023-05-24T17:06:57.457Z,12.875
2023-05-24T17:09:57.679Z,12.75
2023-05-24T17:12:57.409Z,12.75
2023-05-24T17:15:57.297Z,12.812
2023-05-24T17:18:57.126Z,12.812
2023-05-24T17:21:57.742Z,12.562
2023-05-24T17:24:57.723Z,12.375
2023-05-24T17:27:57.605Z,12.187
2023-05-24T17:30:58.347Z,12.187
2023-05-24T17:33:57.934Z,12.062
2023-05-24T17:36:57.215Z,12.0
2023-05-24T17:39:57.884Z,11.937
2023-05-24T17:42:57.339Z,11.937
2023-05-24T17:45:57.534Z,11.875
2023-05-24T17:48:58.241Z,11.875
2023-05-24T17:52:00.288Z,11.812
2023-05-24T17:54:57.196Z,11.812
2023-05-24T17:57:57.346Z,11.75
2023-05-24T18:00:58.157Z,11.75
2023-05-24T18:03:57.279Z,11.75
2023-05-24T18:06:57.644Z,11.562
2023-05-24T18:10:00.048Z,11.375
2023-05-24T18:12:57.047Z,11.312
2023-05-24T18:15:57.522Z,11.187
2023-05-24T18:18:56.903Z,11.062
2023-05-24T18:21:57.184Z,10.875
2023-05-24T18:24:57.842Z,10.812
2023-05-24T18:27:57.838Z,10.75
2023-05-24T18:30:57.915Z,10.625
2023-05-24T18:33:57.352Z,10.562
2023-05-24T18:36:57.523Z,10.375
2023-05-24T18:39:57.948Z,10.312
2023-05-24T18:42:57.097Z,10.062
2023-05-24T18:45:57.232Z,10.062
2023-05-24T18:48:56.835Z,9.75
2023-05-24T18:51:57.641Z,9.562
2023-05-24T18:54:57.402Z,9.562
2023-05-24T18:57:57.516Z,9.25
2023-05-24T19:01:26.336Z,9.062
2023-05-24T19:03:57.900Z,9.062
2023-05-24T19:06:57.740Z,9.062
2023-05-24T19:09:57.410Z,8.5
2023-05-24T19:12:58.174Z,8.312
2023-05-24T19:15:57.796Z,8.375
2023-05-24T19:18:57.561Z,8.375
2023-05-24T19:21:57.209Z,8.437
2023-05-24T19:24:57.278Z,8.562
2023-05-24T19:28:00.530Z,8.875
2023-05-24T19:30:57.134Z,9.062
2023-05-24T19:34:01.020Z,9.062
2023-05-24T19:36:57.703Z,9.0
2023-05-24T19:39:57.207Z,8.875
2023-05-24T19:42:57.024Z,8.812
2023-05-24T19:45:57.052Z,8.75
2023-05-24T19:48:58.322Z,8.687
2023-05-24T19:51:56.952Z,8.375
2023-05-24T19:54:57.317Z,8.125
2023-05-24T19:57:57.923Z,7.875
2023-05-24T20:00:58.231Z,7.875
2023-05-24T20:03:57.615Z,7.812
2023-05-24T20:06:57.647Z,7.5
2023-05-24T20:09:57.907Z,7.5
2023-05-24T20:12:57.637Z,7.687
2023-05-24T20:15:57.751Z,7.437
2023-05-24T20:18:57.341Z,7.312
2023-05-24T20:21:57.471Z,7.25
2023-05-24T20:24:57.520Z,7.25
2023-05-24T20:27:57.536Z,7.375
2023-05-24T20:30:57.961Z,7.375
2023-05-24T20:33:57.132Z,7.687
2023-05-24T20:36:57.407Z,7.437
2023-05-24T20:39:57.346Z,7.625
2023-05-24T20:42:56.989Z,7.875
2023-05-24T20:45:58.044Z,8.375
2023-05-24T20:48:56.892Z,8.625
2023-05-24T20:51:57.883Z,8.0
2023-05-24T20:54:56.955Z,7.625
2023-05-24T20:57:57.256Z,7.625
2023-05-24T21:00:57.637Z,7.187
2023-05-24T21:03:57.244Z,7.187
2023-05-24T21:06:57.373Z,7.0
2023-05-24T21:09:57.802Z,6.937
2023-05-24T21:12:57.640Z,7.25
2023-05-24T21:15:57.305Z,7.437
2023-05-24T21:18:57.815Z,7.375
2023-05-24T21:21:57.469Z,7.562
2023-05-24T21:24:57.066Z,7.625
2023-05-24T21:27:57.231Z,7.5
2023-05-24T21:30:57.357Z,7.25
2023-05-24T21:33:56.834Z,7.312
2023-05-24T21:36:58.048Z,7.687
2023-05-24T21:39:57.981Z,7.625
2023-05-24T21:42:57.116Z,7.625
2023-05-24T21:45:58.096Z,7.687
2023-05-24T21:48:58.290Z,7.625
2023-05-24T21:51:57.930Z,7.437
2023-05-24T21:54:56.980Z,7.437
2023-05-24T21:57:56.653Z,7.312
2023-05-24T22:00:57.869Z,7.187
2023-05-24T22:03:57.459Z,7.437
2023-05-24T22:06:57.005Z,7.312
2023-05-24T22:09:57.191Z,7.125
2023-05-24T22:12:56.710Z,7.25
2023-05-24T22:15:57.729Z,7.25
2023-05-24T22:18:57.790Z,7.0
2023-05-24T22:21:56.580Z,6.937
2023-05-24T22:24:56.730Z,6.937
2023-05-24T22:27:57.263Z,6.875
2023-05-24T22:30:57.445Z,6.875
2023-05-24T22:33:57.379Z,6.875
2023-05-24T22:36:57.769Z,6.875
2023-05-24T22:39:57.692Z,7.375
2023-05-24T22:42:57.390Z,7.375
2023-05-24T22:45:57.445Z,7.375
2023-05-24T22:48:57.021Z,7.625
2023-05-24T22:51:57.294Z,7.687
2023-05-24T22:54:57.815Z,7.812
2023-05-24T22:57:56.996Z,7.75
2023-05-24T23:00:58.098Z,7.687
2023-05-24T23:04:07.733Z,7.687
2023-05-24T23:06:57.812Z,7.687
2023-05-24T23:09:57.173Z,7.625
2023-05-24T23:12:56.920Z,7.625
2023-05-24T23:15:57.176Z,7.5
2023-05-24T23:18:57.797Z,7.687
2023-05-24T23:21:57.159Z,7.562
2023-05-24T23:24:57.338Z,7.625
2023-05-24T23:27:57.436Z,7.625
2023-05-24T23:30:57.599Z,7.687
2023-05-24T23:33:57.774Z,7.5
2023-05-24T23:36:57.268Z,7.437
2023-05-24T23:39:57.373Z,7.312
2023-05-24T23:42:57.629Z,7.312
2023-05-24T23:45:57.440Z,7.312
2023-05-24T23:49:02.030Z,7.25
2023-05-24T23:51:57.434Z,7.125
2023-05-24T23:54:56.783Z,7.375
2023-05-24T23:57:57.272Z,7.25
